createdAt,value
2019-04-07T00:02:26.437Z,96.1
2019-04-07T00:07:33.300Z,96.5
2019-04-07T00:12:38.781Z,96.5
2019-04-07T00:17:45.464Z,96.4
2019-04-07T00:22:50.028Z,96.4
2019-04-07T00:27:56.401Z,96.2
2019-04-07T00:33:03.478Z,96
2019-04-07T00:38:07.377Z,96
2019-04-07T00:43:15.309Z,96.2
2019-04-07T00:48:19.586Z,96.2
2019-04-07T00:53:25.443Z,96.7
2019-04-07T00:58:31.745Z,96.6
2019-04-07T01:03:37.968Z,96.5
2019-04-07T01:08:49.061Z,96.3
2019-04-07T01:13:45.201Z,96.3
2019-04-07T01:18:51.325Z,96.4
2019-04-07T01:23:56.921Z,96.6
2019-04-07T01:29:02.952Z,96.8
2019-04-07T01:34:08.375Z,96.8
2019-04-07T01:39:15.237Z,96.4
2019-04-07T01:44:21.407Z,96.4
2019-04-07T01:49:28.749Z,96.3
2019-04-07T01:54:34.799Z,96.3
2019-04-07T01:59:41.781Z,96.6
2019-04-07T02:04:47.144Z,96.2
2019-04-07T02:09:53.370Z,96.1
2019-04-07T02:14:59.991Z,96.1
2019-04-07T02:20:07.872Z,96.4
2019-04-07T02:25:13.933Z,96.6
2019-04-07T02:30:23.440Z,96.5
2019-04-07T02:35:30.851Z,96.4
2019-04-07T02:40:37.326Z,96.3
2019-04-07T02:45:45.963Z,96.1
2019-04-07T02:50:53.630Z,95.9
2019-04-07T02:55:58.611Z,95.7
2019-04-07T03:01:06.935Z,95.7
2019-04-07T03:06:45.709Z,95.7
2019-04-07T03:11:13.632Z,95.7
2019-04-07T03:16:21.064Z,95.8
2019-04-07T03:21:28.726Z,96
2019-04-07T03:26:34.930Z,95.9
2019-04-07T03:31:48.403Z,96.1
2019-04-07T03:37:44.072Z,96
2019-04-07T03:41:53.722Z,95.9
2019-04-07T03:47:01.436Z,95.8
2019-04-07T03:52:09.692Z,95.6
2019-04-07T03:57:16.513Z,95.6
2019-04-07T04:02:22.518Z,95.8
2019-04-07T04:07:41.828Z,96.1
2019-04-07T04:12:39.662Z,95.9
2019-04-07T04:17:46.450Z,95.9
2019-04-07T04:22:53.481Z,95.9
2019-04-07T04:27:59.971Z,96
2019-04-07T04:33:07.862Z,96.2
2019-04-07T04:38:15.800Z,96.5
2019-04-07T04:43:21.560Z,96.2
2019-04-07T04:48:28.792Z,95.6
2019-04-07T04:53:35.664Z,95.3
2019-04-07T04:58:40.909Z,95.3
2019-04-07T05:03:47.474Z,95.2
2019-04-07T05:08:54.495Z,94.2
2019-04-07T05:14:01.126Z,93.4
2019-04-07T05:19:08.570Z,92.8
2019-04-07T05:24:13.468Z,92.7
2019-04-07T05:29:20.123Z,92.4
2019-04-07T05:34:25.725Z,92
2019-04-07T05:39:31.853Z,91.4
2019-04-07T05:44:39.772Z,90.5
2019-04-07T05:49:44.565Z,90.5
2019-04-07T05:54:53.398Z,86.3
2019-04-07T05:59:59.212Z,86.3
2019-04-07T06:05:05.310Z,80.7
2019-04-07T06:10:11.793Z,78.9
2019-04-07T06:15:24.707Z,77
2019-04-07T06:20:21.603Z,77.2
2019-04-07T06:25:33.018Z,75.5
2019-04-07T06:30:37.874Z,72.8
2019-04-07T06:35:32.409Z,72.8
2019-04-07T06:40:38.307Z,72.9
2019-04-07T06:45:47.605Z,67
2019-04-07T06:51:02.886Z,65.3
2019-04-07T06:56:06.917Z,64.3
2019-04-07T07:01:07.703Z,62.6
2019-04-07T07:06:04.741Z,62.9
2019-04-07T07:11:23.958Z,64.6
2019-04-07T07:16:18.340Z,66.5
2019-04-07T07:21:14.442Z,65.8
2019-04-07T07:26:24.469Z,66.3
2019-04-07T07:31:26.675Z,63.1
2019-04-07T07:41:31.202Z,57.5
2019-04-07T07:46:37.607Z,56
2019-04-07T07:51:49.500Z,52.8
2019-04-07T07:58:02.945Z,46.6
2019-04-07T08:02:59.271Z,46.5
2019-04-07T08:08:04.757Z,42.6
2019-04-07T08:13:11.305Z,44.1
2019-04-07T08:18:20.980Z,42.1
2019-04-07T08:23:17.378Z,40.7
2019-04-07T08:28:24.323Z,35.3
2019-04-07T08:33:33.171Z,30.9
2019-04-07T08:38:40.012Z,32.6
2019-04-07T08:43:46.287Z,32.1
2019-04-07T08:48:57.287Z,28.3
2019-04-07T08:54:05.892Z,28.2
2019-04-07T08:59:20.323Z,26.6
2019-04-07T09:04:20.721Z,27.4
2019-04-07T09:09:17.731Z,28.8
2019-04-07T09:14:25.508Z,29
2019-04-07T09:19:31.020Z,29.6
2019-04-07T09:24:37.067Z,29.5
2019-04-07T09:29:43.243Z,28.7
2019-04-07T09:34:58.987Z,27.2
2019-04-07T09:40:07.812Z,25.6
2019-04-07T09:45:14.638Z,27.5
2019-04-07T09:50:11.339Z,28.9
2019-04-07T09:55:16.688Z,28.9
2019-04-07T10:00:27.047Z,29.9
2019-04-07T10:05:22.712Z,30
2019-04-07T10:10:34.998Z,26.7
2019-04-07T10:15:30.462Z,26.7
2019-04-07T10:20:36.815Z,25.5
2019-04-07T10:25:43.422Z,26.6
2019-04-07T10:30:50.187Z,27.1
2019-04-07T10:35:55.823Z,27.3
2019-04-07T10:41:02.929Z,27.7
2019-04-07T10:46:09.659Z,26.1
2019-04-07T10:51:16.109Z,26.1
2019-04-07T10:56:23.009Z,32.3
2019-04-07T11:01:32.127Z,31.1
2019-04-07T11:06:39.393Z,29.2
2019-04-07T11:11:49.848Z,28.8
2019-04-07T11:16:46.284Z,32.2
2019-04-07T11:21:53.814Z,30
2019-04-07T11:27:00.331Z,27.9
2019-04-07T11:32:04.436Z,27.8
2019-04-07T11:37:14.273Z,29.6
2019-04-07T11:42:10.374Z,28.4
2019-04-07T11:47:16.373Z,27.7
2019-04-07T11:52:23.561Z,29.3
2019-04-07T11:57:30.191Z,27.9
2019-04-07T12:02:35.171Z,28.1
2019-04-07T12:07:41.340Z,27.6
2019-04-07T12:12:47.281Z,27.6
2019-04-07T12:17:54.504Z,26.8
2019-04-07T12:23:01.573Z,26.2
2019-04-07T12:28:07.506Z,26.7
2019-04-07T12:38:19.233Z,29.3
2019-04-07T12:43:26.107Z,29.9
2019-04-07T12:48:34.837Z,30.8
2019-04-07T12:53:38.960Z,33.5
2019-04-07T12:58:35.547Z,37.6
2019-04-07T13:03:43.424Z,37.1
2019-04-07T13:08:56.588Z,38.5
2019-04-07T13:13:52.776Z,38.5
2019-04-07T13:18:58.417Z,39.5
2019-04-07T13:24:33.988Z,40
2019-04-07T13:29:11.788Z,40.9
2019-04-07T13:34:18.790Z,41.1
2019-04-07T13:39:24.800Z,41.3
2019-04-07T13:44:33.428Z,41.9
2019-04-07T13:49:42.510Z,41.7
2019-04-07T13:54:48.270Z,41.7
2019-04-07T13:59:58.189Z,42.4
2019-04-07T14:04:58.707Z,42.4
2019-04-07T14:10:07.999Z,42.7
2019-04-07T14:15:12.504Z,42.1
2019-04-07T14:20:19.328Z,42.1
2019-04-07T14:25:25.645Z,41.6
2019-04-07T14:30:32.327Z,42.5
2019-04-07T14:35:39.801Z,42.9
2019-04-07T14:45:52.688Z,42.8
2019-04-07T14:50:59.976Z,42.8
2019-04-07T14:56:11.058Z,42.8
2019-04-07T15:01:10.709Z,43.5
2019-04-07T15:06:16.522Z,43.5
2019-04-07T15:11:21.984Z,43.4
2019-04-07T15:16:28.550Z,43.4
2019-04-07T15:21:36.260Z,43.1
2019-04-07T15:26:40.950Z,42.8
2019-04-07T15:31:53.128Z,42.7
2019-04-07T15:36:51.110Z,42.8
2019-04-07T15:41:49.453Z,43.6
2019-04-07T15:46:57.478Z,45
2019-04-07T15:52:11.340Z,45.2
2019-04-07T15:57:07.623Z,45.3
2019-04-07T16:02:16.066Z,45.9
2019-04-07T16:07:24.368Z,45.4
2019-04-07T16:12:30.899Z,45.9
2019-04-07T16:17:38.416Z,46.8
2019-04-07T16:22:51.363Z,47
2019-04-07T16:27:49.833Z,47.3
2019-04-07T16:33:01.788Z,47.3
2019-04-07T16:38:03.853Z,47.7
2019-04-07T16:43:20.157Z,48.4
2019-04-07T16:48:11.594Z,48.8
2019-04-07T16:53:11.828Z,49.1
2019-04-07T16:58:09.679Z,49.5
2019-04-07T17:03:08.508Z,49.5
2019-04-07T17:08:22.118Z,51.1
2019-04-07T17:13:43.072Z,51.9
2019-04-07T17:18:28.777Z,52.9
2019-04-07T17:23:27.200Z,53.6
2019-04-07T17:28:34.581Z,53.7
2019-04-07T17:33:42.688Z,54.8
2019-04-07T17:38:50.861Z,55.8
2019-04-07T17:44:03.213Z,57
2019-04-07T17:54:07.894Z,55.9
2019-04-07T17:59:19.519Z,57
2019-04-07T18:04:53.594Z,58.1
2019-04-07T18:09:30.941Z,59.3
2019-04-07T18:14:44.335Z,60.9
2019-04-07T18:19:53.668Z,63.1
2019-04-07T18:24:35.941Z,63.5
2019-04-07T18:29:57.187Z,64
2019-04-07T18:40:06.738Z,66.1
2019-04-07T18:45:05.184Z,67
2019-04-07T18:50:16.580Z,67.7
2019-04-07T18:55:59.862Z,68.2
2019-04-07T19:05:21.030Z,68.9
2019-04-07T19:10:29.084Z,69.1
2019-04-07T19:15:24.035Z,69.7
2019-04-07T19:20:20.196Z,70.2
2019-04-07T19:25:27.008Z,70.6
2019-04-07T19:30:33.322Z,71.4
2019-04-07T19:35:44.722Z,71.9
2019-04-07T19:40:51.049Z,72.5
2019-04-07T19:45:48.914Z,73.1
2019-04-07T19:51:02.923Z,73.5
2019-04-07T19:56:05.342Z,73.9
2019-04-07T20:01:10.553Z,74.2
2019-04-07T20:06:10.048Z,74.7
2019-04-07T20:11:16.942Z,75.3
2019-04-07T20:16:23.880Z,75.2
2019-04-07T20:21:49.259Z,76.3
2019-04-07T20:26:37.786Z,76.2
2019-04-07T20:31:42.855Z,76.9
2019-04-07T20:36:50.834Z,76.7
2019-04-07T20:41:56.756Z,77.4
2019-04-07T20:47:05.555Z,77.9
2019-04-07T20:52:11.171Z,77.9
2019-04-07T20:57:28.046Z,78.7
2019-04-07T21:02:27.879Z,79
2019-04-07T21:07:34.296Z,78.8
2019-04-07T21:12:40.065Z,78.9
2019-04-07T21:17:43.876Z,78.5
2019-04-07T21:22:50.555Z,77.4
2019-04-07T21:27:56.792Z,77.1
2019-04-07T21:33:03.258Z,77.3
2019-04-07T21:38:08.906Z,77.2
2019-04-07T21:43:15.264Z,78.2
2019-04-07T21:53:34.656Z,78.9
2019-04-07T21:58:30.212Z,78.9
2019-04-07T22:03:37.454Z,79.3
2019-04-07T22:08:49.754Z,79.6
2019-04-07T22:13:47.105Z,79.7
2019-04-07T22:18:54.160Z,80.2
2019-04-07T22:24:03.044Z,80.5
2019-04-07T22:29:10.525Z,80.8
2019-04-07T22:34:19.355Z,81.4
2019-04-07T22:39:15.023Z,81.3
2019-04-07T22:44:25.363Z,82
2019-04-07T22:49:21.719Z,82.1
2019-04-07T22:54:33.658Z,82.2
2019-04-07T22:59:31.004Z,82.3
2019-04-07T23:04:38.470Z,82.3
2019-04-07T23:09:44.260Z,82.3
2019-04-07T23:14:51.669Z,82.8
2019-04-07T23:19:57.453Z,82.9
2019-04-07T23:25:04.386Z,82.9
2019-04-07T23:30:09.717Z,83.1
2019-04-07T23:35:16.610Z,83.1
2019-04-07T23:40:22.611Z,83.4
2019-04-07T23:45:29.389Z,83.7
2019-04-07T23:50:36.491Z,84
2019-04-07T23:55:44.255Z,84.5
